sensor_id;sensor_type;location;lat;lon;timestamp;temperature;humidity
32536;DHT22;18974;50.838;4.636;2023-12-20T00:02:20;6.90;99.90
32536;DHT22;18974;50.838;4.636;2023-12-20T00:04:45;6.90;99.90
32536;DHT22;18974;50.838;4.636;2023-12-20T00:07:11;6.80;99.90
32536;DHT22;18974;50.838;4.636;2023-12-20T00:09:37;6.80;99.90
32536;DHT22;18974;50.838;4.636;2023-12-20T00:12:02;6.70;99.90
32536;DHT22;18974;50.838;4.636;2023-12-20T00:14:28;6.70;99.90
32536;DHT22;18974;50.838;4.636;2023-12-20T00:16:54;6.70;99.90
32536;DHT22;18974;50.838;4.636;2023-12-20T00:19:19;6.70;99.90
32536;DHT22;18974;50.838;4.636;2023-12-20T00:21:45;6.70;99.90
32536;DHT22;18974;50.838;4.636;2023-12-20T00:24:11;6.70;99.90
32536;DHT22;18974;50.838;4.636;2023-12-20T00:26:36;6.70;99.90
32536;DHT22;18974;50.838;4.636;2023-12-20T00:29:02;6.80;99.90
32536;DHT22;18974;50.838;4.636;2023-12-20T00:31:28;6.90;99.90
32536;DHT22;18974;50.838;4.636;2023-12-20T00:33:53;6.80;99.90
32536;DHT22;18974;50.838;4.636;2023-12-20T00:36:20;6.80;99.90
32536;DHT22;18974;50.838;4.636;2023-12-20T00:38:45;6.70;99.90
32536;DHT22;18974;50.838;4.636;2023-12-20T00:41:11;6.70;99.90
32536;DHT22;18974;50.838;4.636;2023-12-20T00:43:37;6.70;99.90
32536;DHT22;18974;50.838;4.636;2023-12-20T00:46:02;6.70;99.90
32536;DHT22;18974;50.838;4.636;2023-12-20T00:48:28;6.70;99.90
32536;DHT22;18974;50.838;4.636;2023-12-20T00:50:56;6.70;99.90
32536;DHT22;18974;50.838;4.636;2023-12-20T00:53:22;6.60;99.90
32536;DHT22;18974;50.838;4.636;2023-12-20T00:55:48;6.60;99.90
32536;DHT22;18974;50.838;4.636;2023-12-20T00:58:15;6.60;99.90
32536;DHT22;18974;50.838;4.636;2023-12-20T01:00:41;6.70;99.90
32536;DHT22;18974;50.838;4.636;2023-12-20T01:03:09;6.70;99.90
32536;DHT22;18974;50.838;4.636;2023-12-20T01:05:35;6.60;99.90
32536;DHT22;18974;50.838;4.636;2023-12-20T01:08:01;6.70;99.90
32536;DHT22;18974;50.838;4.636;2023-12-20T01:10:28;6.60;99.90
32536;DHT22;18974;50.838;4.636;2023-12-20T01:12:55;6.60;99.90
32536;DHT22;18974;50.838;4.636;2023-12-20T01:15:20;6.60;99.90
32536;DHT22;18974;50.838;4.636;2023-12-20T01:17:46;6.50;99.90
32536;DHT22;18974;50.838;4.636;2023-12-20T01:20:13;6.40;99.90
32536;DHT22;18974;50.838;4.636;2023-12-20T01:22:38;6.30;99.90
32536;DHT22;18974;50.838;4.636;2023-12-20T01:25:04;6.30;99.90
32536;DHT22;18974;50.838;4.636;2023-12-20T01:27:30;6.30;99.90
32536;DHT22;18974;50.838;4.636;2023-12-20T01:29:57;6.30;99.90
32536;DHT22;18974;50.838;4.636;2023-12-20T01:32:22;6.30;99.90
32536;DHT22;18974;50.838;4.636;2023-12-20T01:34:48;6.30;99.90
32536;DHT22;18974;50.838;4.636;2023-12-20T01:37:14;6.30;99.90
32536;DHT22;18974;50.838;4.636;2023-12-20T01:39:39;6.30;99.90
32536;DHT22;18974;50.838;4.636;2023-12-20T01:42:05;6.30;99.90
32536;DHT22;18974;50.838;4.636;2023-12-20T01:44:31;6.30;99.90
32536;DHT22;18974;50.838;4.636;2023-12-20T01:46:56;6.30;99.90
32536;DHT22;18974;50.838;4.636;2023-12-20T01:49:23;6.20;99.90
32536;DHT22;18974;50.838;4.636;2023-12-20T01:51:49;6.20;99.90
32536;DHT22;18974;50.838;4.636;2023-12-20T01:54:15;6.20;99.90
32536;DHT22;18974;50.838;4.636;2023-12-20T01:56:42;6.20;99.90
32536;DHT22;18974;50.838;4.636;2023-12-20T01:59:08;6.20;99.90
32536;DHT22;18974;50.838;4.636;2023-12-20T02:01:35;6.10;99.90
32536;DHT22;18974;50.838;4.636;2023-12-20T02:04:01;6.00;99.90
32536;DHT22;18974;50.838;4.636;2023-12-20T02:06:30;6.00;99.90
32536;DHT22;18974;50.838;4.636;2023-12-20T02:08:58;6.00;99.90
32536;DHT22;18974;50.838;4.636;2023-12-20T02:11:25;6.10;99.90
32536;DHT22;18974;50.838;4.636;2023-12-20T02:13:51;6.10;99.90
32536;DHT22;18974;50.838;4.636;2023-12-20T02:16:17;6.10;99.90
32536;DHT22;18974;50.838;4.636;2023-12-20T02:18:43;6.20;99.90
32536;DHT22;18974;50.838;4.636;2023-12-20T02:21:10;6.10;99.90
32536;DHT22;18974;50.838;4.636;2023-12-20T02:23:36;6.20;99.90
32536;DHT22;18974;50.838;4.636;2023-12-20T02:26:02;6.20;99.90
32536;DHT22;18974;50.838;4.636;2023-12-20T02:28:28;6.10;99.90
32536;DHT22;18974;50.838;4.636;2023-12-20T02:30:54;6.10;99.90
32536;DHT22;18974;50.838;4.636;2023-12-20T02:33:20;6.00;99.90
32536;DHT22;18974;50.838;4.636;2023-12-20T02:35:46;6.00;99.90
32536;DHT22;18974;50.838;4.636;2023-12-20T02:38:12;6.00;99.90
32536;DHT22;18974;50.838;4.636;2023-12-20T02:40:38;6.00;99.90
32536;DHT22;18974;50.838;4.636;2023-12-20T02:43:04;6.00;99.90
32536;DHT22;18974;50.838;4.636;2023-12-20T02:45:29;6.10;99.90
32536;DHT22;18974;50.838;4.636;2023-12-20T02:47:55;6.10;99.90
32536;DHT22;18974;50.838;4.636;2023-12-20T02:50:21;6.20;99.90
32536;DHT22;18974;50.838;4.636;2023-12-20T02:52:47;6.30;99.90
32536;DHT22;18974;50.838;4.636;2023-12-20T02:55:13;6.40;99.90
32536;DHT22;18974;50.838;4.636;2023-12-20T02:57:38;6.50;99.90
32536;DHT22;18974;50.838;4.636;2023-12-20T03:00:08;6.40;99.90
32536;DHT22;18974;50.838;4.636;2023-12-20T03:02:35;6.40;99.90
32536;DHT22;18974;50.838;4.636;2023-12-20T03:05:01;6.40;99.90
32536;DHT22;18974;50.838;4.636;2023-12-20T03:07:27;6.40;99.90
32536;DHT22;18974;50.838;4.636;2023-12-20T03:09:52;6.40;99.90
32536;DHT22;18974;50.838;4.636;2023-12-20T03:12:18;6.40;99.90
32536;DHT22;18974;50.838;4.636;2023-12-20T03:14:44;6.50;99.90
32536;DHT22;18974;50.838;4.636;2023-12-20T03:17:10;6.50;99.90
32536;DHT22;18974;50.838;4.636;2023-12-20T03:19:35;6.60;99.90
32536;DHT22;18974;50.838;4.636;2023-12-20T03:22:01;6.70;99.90
32536;DHT22;18974;50.838;4.636;2023-12-20T03:24:27;6.60;99.90
32536;DHT22;18974;50.838;4.636;2023-12-20T03:26:53;6.70;99.90
32536;DHT22;18974;50.838;4.636;2023-12-20T03:29:19;6.70;99.90
32536;DHT22;18974;50.838;4.636;2023-12-20T03:31:44;6.50;99.90
32536;DHT22;18974;50.838;4.636;2023-12-20T03:34:11;6.50;99.90
32536;DHT22;18974;50.838;4.636;2023-12-20T03:36:37;6.40;99.90
32536;DHT22;18974;50.838;4.636;2023-12-20T03:39:02;6.40;99.90
32536;DHT22;18974;50.838;4.636;2023-12-20T03:41:28;6.40;99.90
32536;DHT22;18974;50.838;4.636;2023-12-20T03:43:54;6.40;99.90
32536;DHT22;18974;50.838;4.636;2023-12-20T03:46:20;6.40;99.90
32536;DHT22;18974;50.838;4.636;2023-12-20T03:48:45;6.40;99.90
32536;DHT22;18974;50.838;4.636;2023-12-20T03:51:11;6.40;99.90
32536;DHT22;18974;50.838;4.636;2023-12-20T03:53:37;6.40;99.90
32536;DHT22;18974;50.838;4.636;2023-12-20T03:56:03;6.30;99.90
32536;DHT22;18974;50.838;4.636;2023-12-20T03:58:29;6.40;99.90
32536;DHT22;18974;50.838;4.636;2023-12-20T04:00:54;6.40;99.90
32536;DHT22;18974;50.838;4.636;2023-12-20T04:03:20;6.50;99.90
32536;DHT22;18974;50.838;4.636;2023-12-20T04:05:46;6.50;99.90
32536;DHT22;18974;50.838;4.636;2023-12-20T04:08:12;6.60;99.90
32536;DHT22;18974;50.838;4.636;2023-12-20T04:10:37;6.60;99.90
32536;DHT22;18974;50.838;4.636;2023-12-20T04:13:04;6.70;99.90
32536;DHT22;18974;50.838;4.636;2023-12-20T04:15:30;6.70;99.90
32536;DHT22;18974;50.838;4.636;2023-12-20T04:17:55;6.80;99.90
32536;DHT22;18974;50.838;4.636;2023-12-20T04:20:21;6.90;99.90
32536;DHT22;18974;50.838;4.636;2023-12-20T04:22:47;7.00;99.90
32536;DHT22;18974;50.838;4.636;2023-12-20T04:25:12;7.00;99.90
32536;DHT22;18974;50.838;4.636;2023-12-20T04:27:38;6.90;99.90
32536;DHT22;18974;50.838;4.636;2023-12-20T04:30:04;6.90;99.90
32536;DHT22;18974;50.838;4.636;2023-12-20T04:32:30;6.80;99.90
32536;DHT22;18974;50.838;4.636;2023-12-20T04:34:56;6.80;99.90
32536;DHT22;18974;50.838;4.636;2023-12-20T04:37:22;6.70;99.90
32536;DHT22;18974;50.838;4.636;2023-12-20T04:39:48;6.70;99.90
32536;DHT22;18974;50.838;4.636;2023-12-20T04:42:14;6.60;99.90
32536;DHT22;18974;50.838;4.636;2023-12-20T04:44:39;6.50;99.90
32536;DHT22;18974;50.838;4.636;2023-12-20T04:47:05;6.50;99.90
32536;DHT22;18974;50.838;4.636;2023-12-20T04:49:30;6.50;99.90
32536;DHT22;18974;50.838;4.636;2023-12-20T04:51:56;6.50;99.90
32536;DHT22;18974;50.838;4.636;2023-12-20T04:54:22;6.40;99.90
32536;DHT22;18974;50.838;4.636;2023-12-20T04:56:48;6.40;99.90
32536;DHT22;18974;50.838;4.636;2023-12-20T04:59:13;6.30;99.90
32536;DHT22;18974;50.838;4.636;2023-12-20T05:01:39;6.40;99.90
32536;DHT22;18974;50.838;4.636;2023-12-20T05:04:05;6.40;99.90
32536;DHT22;18974;50.838;4.636;2023-12-20T05:06:30;6.40;99.90
32536;DHT22;18974;50.838;4.636;2023-12-20T05:08:56;6.40;99.90
32536;DHT22;18974;50.838;4.636;2023-12-20T05:11:22;6.50;99.90
32536;DHT22;18974;50.838;4.636;2023-12-20T05:13:47;6.40;99.90
32536;DHT22;18974;50.838;4.636;2023-12-20T05:16:13;6.40;99.90
32536;DHT22;18974;50.838;4.636;2023-12-20T05:18:40;6.40;99.90
32536;DHT22;18974;50.838;4.636;2023-12-20T05:21:05;6.40;99.90
32536;DHT22;18974;50.838;4.636;2023-12-20T05:23:32;6.30;99.90
32536;DHT22;18974;50.838;4.636;2023-12-20T05:25:57;6.40;99.90
32536;DHT22;18974;50.838;4.636;2023-12-20T05:28:24;6.40;99.90
32536;DHT22;18974;50.838;4.636;2023-12-20T05:30:50;6.40;99.90
32536;DHT22;18974;50.838;4.636;2023-12-20T05:33:15;6.40;99.90
32536;DHT22;18974;50.838;4.636;2023-12-20T05:35:41;6.30;99.90
32536;DHT22;18974;50.838;4.636;2023-12-20T05:38:07;6.30;99.90
32536;DHT22;18974;50.838;4.636;2023-12-20T05:40:32;6.20;99.90
32536;DHT22;18974;50.838;4.636;2023-12-20T05:42:58;6.20;99.90
32536;DHT22;18974;50.838;4.636;2023-12-20T05:45:24;6.30;99.90
32536;DHT22;18974;50.838;4.636;2023-12-20T05:47:49;6.20;99.90
32536;DHT22;18974;50.838;4.636;2023-12-20T05:50:15;6.20;99.90
32536;DHT22;18974;50.838;4.636;2023-12-20T05:52:41;6.10;99.90
32536;DHT22;18974;50.838;4.636;2023-12-20T05:55:06;6.10;99.90
32536;DHT22;18974;50.838;4.636;2023-12-20T05:57:32;6.10;99.90
32536;DHT22;18974;50.838;4.636;2023-12-20T05:59:58;6.10;99.90
32536;DHT22;18974;50.838;4.636;2023-12-20T06:02:23;6.00;99.90
32536;DHT22;18974;50.838;4.636;2023-12-20T06:04:49;6.10;99.90
32536;DHT22;18974;50.838;4.636;2023-12-20T06:07:16;6.00;99.90
32536;DHT22;18974;50.838;4.636;2023-12-20T06:09:41;6.00;99.90
32536;DHT22;18974;50.838;4.636;2023-12-20T06:12:07;6.00;99.90
32536;DHT22;18974;50.838;4.636;2023-12-20T06:14:36;6.10;99.90
32536;DHT22;18974;50.838;4.636;2023-12-20T06:17:02;6.20;99.90
32536;DHT22;18974;50.838;4.636;2023-12-20T06:19:28;6.20;99.90
32536;DHT22;18974;50.838;4.636;2023-12-20T06:21:53;6.10;99.90
32536;DHT22;18974;50.838;4.636;2023-12-20T06:24:19;6.20;99.90
32536;DHT22;18974;50.838;4.636;2023-12-20T06:26:45;6.20;99.90
32536;DHT22;18974;50.838;4.636;2023-12-20T06:29:10;6.20;99.90
32536;DHT22;18974;50.838;4.636;2023-12-20T06:31:36;6.20;99.90
32536;DHT22;18974;50.838;4.636;2023-12-20T06:34:02;6.20;99.90
32536;DHT22;18974;50.838;4.636;2023-12-20T06:36:28;6.20;99.90
32536;DHT22;18974;50.838;4.636;2023-12-20T06:38:54;6.20;99.90
32536;DHT22;18974;50.838;4.636;2023-12-20T06:41:20;6.20;99.90
32536;DHT22;18974;50.838;4.636;2023-12-20T06:43:46;6.30;99.90
32536;DHT22;18974;50.838;4.636;2023-12-20T06:46:12;6.30;99.90
32536;DHT22;18974;50.838;4.636;2023-12-20T06:48:39;6.30;99.90
32536;DHT22;18974;50.838;4.636;2023-12-20T06:51:05;6.30;99.90
32536;DHT22;18974;50.838;4.636;2023-12-20T06:53:31;6.40;99.90
32536;DHT22;18974;50.838;4.636;2023-12-20T06:55:57;6.30;99.90
32536;DHT22;18974;50.838;4.636;2023-12-20T06:58:23;6.20;99.90
32536;DHT22;18974;50.838;4.636;2023-12-20T07:00:49;6.20;99.90
32536;DHT22;18974;50.838;4.636;2023-12-20T07:03:14;6.30;99.90
32536;DHT22;18974;50.838;4.636;2023-12-20T07:05:41;6.40;99.90
32536;DHT22;18974;50.838;4.636;2023-12-20T07:08:07;6.30;99.90
32536;DHT22;18974;50.838;4.636;2023-12-20T07:10:33;6.30;99.90
32536;DHT22;18974;50.838;4.636;2023-12-20T07:12:58;6.20;99.90
32536;DHT22;18974;50.838;4.636;2023-12-20T07:15:24;6.20;99.90
32536;DHT22;18974;50.838;4.636;2023-12-20T07:17:50;6.10;99.90
32536;DHT22;18974;50.838;4.636;2023-12-20T07:20:15;6.20;99.90
32536;DHT22;18974;50.838;4.636;2023-12-20T07:22:41;6.10;99.90
32536;DHT22;18974;50.838;4.636;2023-12-20T07:25:07;6.00;99.90
32536;DHT22;18974;50.838;4.636;2023-12-20T07:27:33;6.00;99.90
32536;DHT22;18974;50.838;4.636;2023-12-20T07:29:59;6.00;99.90
32536;DHT22;18974;50.838;4.636;2023-12-20T07:32:25;5.90;99.90
32536;DHT22;18974;50.838;4.636;2023-12-20T07:34:50;5.90;99.90
32536;DHT22;18974;50.838;4.636;2023-12-20T07:37:16;5.90;99.90
32536;DHT22;18974;50.838;4.636;2023-12-20T07:39:42;5.90;99.90
32536;DHT22;18974;50.838;4.636;2023-12-20T07:42:08;5.90;99.90
32536;DHT22;18974;50.838;4.636;2023-12-20T07:44:34;5.90;99.90
32536;DHT22;18974;50.838;4.636;2023-12-20T07:47:01;5.90;99.90
32536;DHT22;18974;50.838;4.636;2023-12-20T07:49:27;5.90;99.90
32536;DHT22;18974;50.838;4.636;2023-12-20T07:51:53;5.90;99.90
32536;DHT22;18974;50.838;4.636;2023-12-20T07:54:19;5.90;99.90
32536;DHT22;18974;50.838;4.636;2023-12-20T07:56:46;5.90;99.90
32536;DHT22;18974;50.838;4.636;2023-12-20T07:59:11;5.90;99.90
32536;DHT22;18974;50.838;4.636;2023-12-20T08:01:37;5.90;99.90
32536;DHT22;18974;50.838;4.636;2023-12-20T08:04:03;5.90;99.90
32536;DHT22;18974;50.838;4.636;2023-12-20T08:06:29;5.80;99.90
32536;DHT22;18974;50.838;4.636;2023-12-20T08:08:54;5.80;99.90
32536;DHT22;18974;50.838;4.636;2023-12-20T08:11:20;5.90;99.90
32536;DHT22;18974;50.838;4.636;2023-12-20T08:13:46;5.90;99.90
32536;DHT22;18974;50.838;4.636;2023-12-20T08:16:11;6.00;99.90
32536;DHT22;18974;50.838;4.636;2023-12-20T08:18:39;5.90;99.90
32536;DHT22;18974;50.838;4.636;2023-12-20T08:21:05;5.90;99.90
32536;DHT22;18974;50.838;4.636;2023-12-20T08:23:33;6.00;99.90
32536;DHT22;18974;50.838;4.636;2023-12-20T08:26:02;6.00;99.90
32536;DHT22;18974;50.838;4.636;2023-12-20T08:28:28;6.10;99.90
32536;DHT22;18974;50.838;4.636;2023-12-20T08:30:54;6.10;99.90
32536;DHT22;18974;50.838;4.636;2023-12-20T08:33:20;6.10;99.90
32536;DHT22;18974;50.838;4.636;2023-12-20T08:35:46;6.10;99.90
32536;DHT22;18974;50.838;4.636;2023-12-20T08:38:11;6.10;99.90
32536;DHT22;18974;50.838;4.636;2023-12-20T08:40:37;6.10;99.90
32536;DHT22;18974;50.838;4.636;2023-12-20T08:43:03;6.10;99.90
32536;DHT22;18974;50.838;4.636;2023-12-20T08:45:29;6.20;99.90
32536;DHT22;18974;50.838;4.636;2023-12-20T08:47:55;6.20;99.90
32536;DHT22;18974;50.838;4.636;2023-12-20T08:50:20;6.20;99.90
32536;DHT22;18974;50.838;4.636;2023-12-20T08:52:47;6.40;99.90
32536;DHT22;18974;50.838;4.636;2023-12-20T08:55:12;6.50;99.90
32536;DHT22;18974;50.838;4.636;2023-12-20T08:57:40;6.60;99.90
32536;DHT22;18974;50.838;4.636;2023-12-20T09:00:06;6.80;99.90
32536;DHT22;18974;50.838;4.636;2023-12-20T09:02:33;6.80;99.90
32536;DHT22;18974;50.838;4.636;2023-12-20T09:05:01;6.80;99.90
32536;DHT22;18974;50.838;4.636;2023-12-20T09:07:27;6.80;99.90
32536;DHT22;18974;50.838;4.636;2023-12-20T09:09:55;6.70;99.90
32536;DHT22;18974;50.838;4.636;2023-12-20T09:12:22;6.70;99.90
32536;DHT22;18974;50.838;4.636;2023-12-20T09:14:48;6.70;99.90
32536;DHT22;18974;50.838;4.636;2023-12-20T09:17:15;6.70;99.90
32536;DHT22;18974;50.838;4.636;2023-12-20T09:19:42;6.70;99.90
32536;DHT22;18974;50.838;4.636;2023-12-20T09:22:09;6.90;99.90
32536;DHT22;18974;50.838;4.636;2023-12-20T09:24:35;7.00;99.90
32536;DHT22;18974;50.838;4.636;2023-12-20T09:27:01;6.90;99.90
32536;DHT22;18974;50.838;4.636;2023-12-20T09:29:27;6.80;99.90
32536;DHT22;18974;50.838;4.636;2023-12-20T09:31:52;6.90;99.90
32536;DHT22;18974;50.838;4.636;2023-12-20T09:34:18;6.80;99.90
32536;DHT22;18974;50.838;4.636;2023-12-20T09:36:44;7.00;99.90
32536;DHT22;18974;50.838;4.636;2023-12-20T09:39:17;7.10;99.90
32536;DHT22;18974;50.838;4.636;2023-12-20T09:42:03;7.20;99.90
32536;DHT22;18974;50.838;4.636;2023-12-20T09:44:30;7.20;99.90
32536;DHT22;18974;50.838;4.636;2023-12-20T09:46:56;7.20;99.90
32536;DHT22;18974;50.838;4.636;2023-12-20T09:49:22;7.30;99.90
32536;DHT22;18974;50.838;4.636;2023-12-20T09:51:50;7.40;99.90
32536;DHT22;18974;50.838;4.636;2023-12-20T09:54:17;7.40;99.90
32536;DHT22;18974;50.838;4.636;2023-12-20T09:56:44;7.40;99.90
32536;DHT22;18974;50.838;4.636;2023-12-20T09:59:10;7.50;99.90
32536;DHT22;18974;50.838;4.636;2023-12-20T10:01:36;7.70;99.90
32536;DHT22;18974;50.838;4.636;2023-12-20T10:04:06;7.70;99.90
32536;DHT22;18974;50.838;4.636;2023-12-20T10:06:38;7.80;99.90
32536;DHT22;18974;50.838;4.636;2023-12-20T10:09:04;7.90;99.90
32536;DHT22;18974;50.838;4.636;2023-12-20T10:11:31;7.90;99.90
32536;DHT22;18974;50.838;4.636;2023-12-20T10:14:00;8.00;99.90
32536;DHT22;18974;50.838;4.636;2023-12-20T10:16:30;8.10;99.90
32536;DHT22;18974;50.838;4.636;2023-12-20T10:18:56;8.00;99.90
32536;DHT22;18974;50.838;4.636;2023-12-20T10:21:25;8.10;99.90
32536;DHT22;18974;50.838;4.636;2023-12-20T10:23:55;8.10;99.90
32536;DHT22;18974;50.838;4.636;2023-12-20T10:26:22;8.10;99.90
32536;DHT22;18974;50.838;4.636;2023-12-20T10:28:55;8.00;99.90
32536;DHT22;18974;50.838;4.636;2023-12-20T10:31:32;8.10;99.90
32536;DHT22;18974;50.838;4.636;2023-12-20T10:33:59;8.20;99.90
32536;DHT22;18974;50.838;4.636;2023-12-20T10:36:32;8.20;99.90
32536;DHT22;18974;50.838;4.636;2023-12-20T10:38:58;8.20;99.90
32536;DHT22;18974;50.838;4.636;2023-12-20T10:41:32;8.10;99.90
32536;DHT22;18974;50.838;4.636;2023-12-20T10:44:00;8.10;99.90
32536;DHT22;18974;50.838;4.636;2023-12-20T10:46:27;8.20;99.90
32536;DHT22;18974;50.838;4.636;2023-12-20T10:48:54;8.30;99.90
32536;DHT22;18974;50.838;4.636;2023-12-20T10:51:21;8.30;99.90
32536;DHT22;18974;50.838;4.636;2023-12-20T10:53:48;8.40;99.90
32536;DHT22;18974;50.838;4.636;2023-12-20T10:56:17;8.40;99.90
32536;DHT22;18974;50.838;4.636;2023-12-20T10:58:48;8.40;99.90
32536;DHT22;18974;50.838;4.636;2023-12-20T11:01:18;8.30;99.90
32536;DHT22;18974;50.838;4.636;2023-12-20T11:03:51;8.40;99.90
32536;DHT22;18974;50.838;4.636;2023-12-20T11:06:49;8.40;99.90
32536;DHT22;18974;50.838;4.636;2023-12-20T11:09:24;8.50;99.90
32536;DHT22;18974;50.838;4.636;2023-12-20T11:14:46;8.50;99.90
32536;DHT22;18974;50.838;4.636;2023-12-20T11:17:13;8.60;99.90
32536;DHT22;18974;50.838;4.636;2023-12-20T11:22:32;8.60;99.90
32536;DHT22;18974;50.838;4.636;2023-12-20T11:25:04;8.60;99.90
32536;DHT22;18974;50.838;4.636;2023-12-20T11:27:30;8.50;99.90
32536;DHT22;18974;50.838;4.636;2023-12-20T11:29:57;8.50;99.90
32536;DHT22;18974;50.838;4.636;2023-12-20T11:34:59;8.70;99.90
32536;DHT22;18974;50.838;4.636;2023-12-20T11:37:35;8.70;99.90
32536;DHT22;18974;50.838;4.636;2023-12-20T11:40:02;8.70;99.90
32536;DHT22;18974;50.838;4.636;2023-12-20T11:42:28;8.60;99.90
32536;DHT22;18974;50.838;4.636;2023-12-20T11:44:53;8.60;99.90
32536;DHT22;18974;50.838;4.636;2023-12-20T11:47:19;8.60;99.90
32536;DHT22;18974;50.838;4.636;2023-12-20T11:49:48;8.70;99.90
32536;DHT22;18974;50.838;4.636;2023-12-20T11:52:14;8.60;99.90
32536;DHT22;18974;50.838;4.636;2023-12-20T11:54:40;8.60;99.90
32536;DHT22;18974;50.838;4.636;2023-12-20T11:57:06;8.60;99.90
32536;DHT22;18974;50.838;4.636;2023-12-20T11:59:31;8.50;99.90
32536;DHT22;18974;50.838;4.636;2023-12-20T12:01:59;8.50;99.90
32536;DHT22;18974;50.838;4.636;2023-12-20T12:04:26;8.50;99.90
32536;DHT22;18974;50.838;4.636;2023-12-20T12:06:53;8.60;99.90
32536;DHT22;18974;50.838;4.636;2023-12-20T12:09:19;8.70;99.90
32536;DHT22;18974;50.838;4.636;2023-12-20T12:11:45;8.60;99.90
32536;DHT22;18974;50.838;4.636;2023-12-20T12:14:11;8.70;99.90
32536;DHT22;18974;50.838;4.636;2023-12-20T12:16:37;8.70;99.90
32536;DHT22;18974;50.838;4.636;2023-12-20T12:19:03;8.70;99.90
32536;DHT22;18974;50.838;4.636;2023-12-20T12:21:29;8.60;99.90
32536;DHT22;18974;50.838;4.636;2023-12-20T12:24:09;8.50;99.90
32536;DHT22;18974;50.838;4.636;2023-12-20T12:26:34;8.50;99.90
32536;DHT22;18974;50.838;4.636;2023-12-20T12:29:02;8.60;99.90
32536;DHT22;18974;50.838;4.636;2023-12-20T12:31:28;8.60;99.90
32536;DHT22;18974;50.838;4.636;2023-12-20T12:33:56;8.60;99.90
32536;DHT22;18974;50.838;4.636;2023-12-20T12:36:21;8.60;99.90
32536;DHT22;18974;50.838;4.636;2023-12-20T12:38:47;8.80;99.90
32536;DHT22;18974;50.838;4.636;2023-12-20T12:41:13;8.70;99.90
32536;DHT22;18974;50.838;4.636;2023-12-20T12:43:40;8.70;99.90
32536;DHT22;18974;50.838;4.636;2023-12-20T12:46:07;8.70;99.90
32536;DHT22;18974;50.838;4.636;2023-12-20T12:48:32;8.70;99.90
32536;DHT22;18974;50.838;4.636;2023-12-20T12:50:59;8.90;99.90
32536;DHT22;18974;50.838;4.636;2023-12-20T12:53:25;8.80;99.90
32536;DHT22;18974;50.838;4.636;2023-12-20T12:56:00;8.90;99.90
32536;DHT22;18974;50.838;4.636;2023-12-20T12:58:26;8.90;99.90
32536;DHT22;18974;50.838;4.636;2023-12-20T13:00:52;8.80;99.90
32536;DHT22;18974;50.838;4.636;2023-12-20T13:11:04;8.70;99.90
32536;DHT22;18974;50.838;4.636;2023-12-20T13:13:30;8.80;99.90
32536;DHT22;18974;50.838;4.636;2023-12-20T13:15:56;8.80;99.90
32536;DHT22;18974;50.838;4.636;2023-12-20T13:18:23;8.80;99.90
32536;DHT22;18974;50.838;4.636;2023-12-20T13:20:49;8.60;99.90
32536;DHT22;18974;50.838;4.636;2023-12-20T13:23:15;8.60;99.90
32536;DHT22;18974;50.838;4.636;2023-12-20T13:25:41;8.60;99.90
32536;DHT22;18974;50.838;4.636;2023-12-20T13:28:07;8.50;99.90
32536;DHT22;18974;50.838;4.636;2023-12-20T13:30:34;8.60;99.90
32536;DHT22;18974;50.838;4.636;2023-12-20T13:32:59;8.60;99.90
32536;DHT22;18974;50.838;4.636;2023-12-20T13:35:25;8.80;99.90
32536;DHT22;18974;50.838;4.636;2023-12-20T13:37:51;8.80;99.90
32536;DHT22;18974;50.838;4.636;2023-12-20T13:40:17;8.90;99.90
32536;DHT22;18974;50.838;4.636;2023-12-20T13:42:43;8.90;99.90
32536;DHT22;18974;50.838;4.636;2023-12-20T13:45:09;9.00;99.90
32536;DHT22;18974;50.838;4.636;2023-12-20T13:47:35;9.00;99.90
32536;DHT22;18974;50.838;4.636;2023-12-20T13:50:02;8.90;99.90
32536;DHT22;18974;50.838;4.636;2023-12-20T13:52:28;8.90;99.90
32536;DHT22;18974;50.838;4.636;2023-12-20T13:54:53;8.90;99.90
32536;DHT22;18974;50.838;4.636;2023-12-20T13:57:19;8.90;99.90
32536;DHT22;18974;50.838;4.636;2023-12-20T13:59:48;9.00;99.90
32536;DHT22;18974;50.838;4.636;2023-12-20T14:02:13;9.00;99.90
32536;DHT22;18974;50.838;4.636;2023-12-20T14:04:39;9.00;99.90
32536;DHT22;18974;50.838;4.636;2023-12-20T14:07:05;9.10;99.90
32536;DHT22;18974;50.838;4.636;2023-12-20T14:09:33;9.20;99.90
32536;DHT22;18974;50.838;4.636;2023-12-20T14:11:59;9.10;99.90
32536;DHT22;18974;50.838;4.636;2023-12-20T14:14:24;9.10;99.90
32536;DHT22;18974;50.838;4.636;2023-12-20T14:16:50;9.00;99.90
32536;DHT22;18974;50.838;4.636;2023-12-20T14:19:16;9.00;99.90
32536;DHT22;18974;50.838;4.636;2023-12-20T14:21:43;8.90;99.90
32536;DHT22;18974;50.838;4.636;2023-12-20T14:24:12;8.90;99.90
32536;DHT22;18974;50.838;4.636;2023-12-20T14:26:40;9.10;99.90
32536;DHT22;18974;50.838;4.636;2023-12-20T14:29:09;9.10;99.90
32536;DHT22;18974;50.838;4.636;2023-12-20T14:31:34;9.20;99.90
32536;DHT22;18974;50.838;4.636;2023-12-20T14:34:00;9.30;99.90
32536;DHT22;18974;50.838;4.636;2023-12-20T14:36:29;9.40;99.90
32536;DHT22;18974;50.838;4.636;2023-12-20T14:38:56;9.40;99.90
32536;DHT22;18974;50.838;4.636;2023-12-20T14:41:22;9.40;99.90
32536;DHT22;18974;50.838;4.636;2023-12-20T14:43:50;9.40;99.90
32536;DHT22;18974;50.838;4.636;2023-12-20T14:46:17;9.40;99.90
32536;DHT22;18974;50.838;4.636;2023-12-20T14:48:43;9.40;99.90
32536;DHT22;18974;50.838;4.636;2023-12-20T14:51:08;9.50;99.90
32536;DHT22;18974;50.838;4.636;2023-12-20T14:53:34;9.40;99.90
32536;DHT22;18974;50.838;4.636;2023-12-20T14:56:03;9.30;99.90
32536;DHT22;18974;50.838;4.636;2023-12-20T14:58:30;9.40;99.90
32536;DHT22;18974;50.838;4.636;2023-12-20T15:00:56;9.40;99.90
32536;DHT22;18974;50.838;4.636;2023-12-20T15:03:21;9.30;99.90
32536;DHT22;18974;50.838;4.636;2023-12-20T15:05:48;9.30;99.90
32536;DHT22;18974;50.838;4.636;2023-12-20T15:08:14;9.20;99.90
32536;DHT22;18974;50.838;4.636;2023-12-20T15:10:40;9.30;99.90
32536;DHT22;18974;50.838;4.636;2023-12-20T15:13:05;9.30;99.90
32536;DHT22;18974;50.838;4.636;2023-12-20T15:15:31;9.30;99.90
32536;DHT22;18974;50.838;4.636;2023-12-20T15:18:00;9.30;99.90
32536;DHT22;18974;50.838;4.636;2023-12-20T15:20:26;9.30;99.90
32536;DHT22;18974;50.838;4.636;2023-12-20T15:22:51;9.40;99.90
32536;DHT22;18974;50.838;4.636;2023-12-20T15:25:18;9.40;99.90
32536;DHT22;18974;50.838;4.636;2023-12-20T15:27:48;9.40;99.90
32536;DHT22;18974;50.838;4.636;2023-12-20T15:30:22;9.40;99.90
32536;DHT22;18974;50.838;4.636;2023-12-20T15:32:50;9.40;99.90
32536;DHT22;18974;50.838;4.636;2023-12-20T15:35:16;9.50;99.90
32536;DHT22;18974;50.838;4.636;2023-12-20T15:37:42;9.40;99.90
32536;DHT22;18974;50.838;4.636;2023-12-20T15:40:09;9.50;99.90
32536;DHT22;18974;50.838;4.636;2023-12-20T15:42:38;9.60;99.90
32536;DHT22;18974;50.838;4.636;2023-12-20T15:45:05;9.60;99.90
32536;DHT22;18974;50.838;4.636;2023-12-20T15:47:31;9.70;99.90
32536;DHT22;18974;50.838;4.636;2023-12-20T15:49:57;9.70;99.90
32536;DHT22;18974;50.838;4.636;2023-12-20T15:52:23;9.70;99.90
32536;DHT22;18974;50.838;4.636;2023-12-20T15:54:49;9.70;99.90
32536;DHT22;18974;50.838;4.636;2023-12-20T15:57:15;9.70;99.90